createdAt,value
2023-04-22T00:02:13.258Z,15.38
2023-04-22T00:04:41.806Z,15.35
2023-04-22T00:07:08.625Z,14.27
2023-04-22T00:09:35.366Z,16.42
2023-04-22T00:12:02.488Z,16.17
2023-04-22T00:14:29.149Z,21.65
2023-04-22T00:16:56.176Z,16.52
2023-04-22T00:19:23.248Z,16.75
2023-04-22T00:21:50.246Z,24.73
2023-04-22T00:24:16.955Z,17.10
2023-04-22T00:26:43.554Z,14.70
2023-04-22T00:29:10.309Z,14.63
2023-04-22T00:31:36.810Z,17.92
2023-04-22T00:34:03.311Z,17.92
2023-04-22T00:36:29.823Z,18.73
2023-04-22T00:38:56.411Z,16.20
2023-04-22T00:41:23.321Z,13.27
2023-04-22T00:43:50.903Z,12.15
2023-04-22T00:46:17.445Z,21.40
2023-04-22T00:48:44.796Z,21.15
2023-04-22T00:51:11.293Z,20.20
2023-04-22T00:53:37.810Z,20.83
2023-04-22T00:56:04.616Z,17.63
2023-04-22T00:58:31.352Z,11.32
2023-04-22T01:00:58.714Z,13.68
2023-04-22T01:03:28.525Z,16.25
2023-04-22T01:05:56.181Z,13.73
2023-04-22T01:08:27.935Z,14.98
2023-04-22T01:10:54.581Z,18.25
2023-04-22T01:13:21.302Z,15.20
2023-04-22T01:15:48.025Z,15.13
2023-04-22T01:18:15.613Z,19.00
2023-04-22T01:20:42.386Z,13.25
2023-04-22T01:23:19.451Z,16.70
2023-04-22T01:25:47.005Z,16.65
2023-04-22T01:28:14.549Z,19.13
2023-04-22T01:30:42.059Z,15.68
2023-04-22T01:33:09.953Z,15.48
2023-04-22T01:35:37.382Z,15.48
2023-04-22T01:38:05.364Z,18.70
2023-04-22T01:40:32.632Z,17.10
2023-04-22T01:43:00.646Z,11.57
2023-04-22T01:45:27.777Z,13.23
2023-04-22T01:47:55.412Z,17.05
2023-04-22T01:50:23.135Z,17.88
2023-04-22T01:52:50.228Z,14.70
2023-04-22T01:55:17.053Z,14.05
2023-04-22T01:57:43.716Z,16.67
2023-04-22T02:00:10.950Z,18.52
2023-04-22T02:02:37.613Z,16.52
2023-04-22T02:05:06.644Z,15.80
2023-04-22T02:07:33.357Z,13.00
2023-04-22T02:09:59.881Z,17.27
2023-04-22T02:12:26.356Z,20.05
2023-04-22T02:14:52.887Z,16.40
2023-04-22T02:17:19.372Z,17.75
2023-04-22T02:19:45.965Z,18.25
2023-04-22T02:22:12.495Z,17.10
2023-04-22T02:24:39.128Z,20.27
2023-04-22T02:27:06.303Z,17.75
2023-04-22T02:29:32.878Z,19.20
2023-04-22T02:32:00.019Z,17.33
2023-04-22T02:34:27.008Z,15.40
2023-04-22T02:36:53.636Z,19.60
2023-04-22T02:39:20.491Z,22.75
2023-04-22T02:41:47.012Z,20.33
2023-04-22T02:44:13.574Z,17.25
2023-04-22T02:46:40.191Z,18.67
2023-04-22T02:49:06.820Z,19.65
2023-04-22T02:51:33.375Z,19.40
2023-04-22T02:54:00.274Z,19.58
2023-04-22T02:56:27.397Z,20.42
2023-04-22T02:58:53.919Z,18.40
2023-04-22T03:01:20.505Z,19.90
2023-04-22T03:03:47.227Z,25.23
2023-04-22T03:06:13.932Z,21.50
2023-04-22T03:08:40.518Z,21.75
2023-04-22T03:11:07.051Z,25.73
2023-04-22T03:13:33.595Z,15.32
2023-04-22T03:16:00.273Z,19.30
2023-04-22T03:18:26.915Z,20.98
2023-04-22T03:20:53.404Z,20.70
2023-04-22T03:23:19.879Z,22.67
2023-04-22T03:25:46.441Z,28.50
2023-04-22T03:28:12.920Z,21.73
2023-04-22T03:30:39.446Z,27.58
2023-04-22T03:33:06.068Z,20.85
2023-04-22T03:35:32.607Z,23.58
2023-04-22T03:37:59.103Z,27.65
2023-04-22T03:40:25.702Z,24.63
2023-04-22T03:42:52.188Z,19.52
2023-04-22T03:45:18.782Z,29.75
2023-04-22T03:47:45.740Z,30.00
2023-04-22T03:50:12.268Z,18.33
2023-04-22T03:52:39.097Z,18.90
2023-04-22T03:55:06.203Z,29.13
2023-04-22T03:57:32.694Z,25.98
2023-04-22T03:59:59.156Z,28.95
2023-04-22T04:02:25.790Z,25.70
2023-04-22T04:04:52.630Z,29.85
2023-04-22T04:07:19.487Z,20.13
2023-04-22T04:09:46.310Z,27.65
2023-04-22T04:12:12.829Z,26.13
2023-04-22T04:14:39.874Z,22.33
2023-04-22T04:17:10.344Z,24.83
2023-04-22T04:19:38.047Z,33.97
2023-04-22T04:22:05.077Z,23.40
2023-04-22T04:24:31.575Z,24.20
2023-04-22T04:26:58.177Z,25.85
2023-04-22T04:29:25.206Z,22.63
2023-04-22T04:31:51.967Z,25.90
2023-04-22T04:34:19.200Z,32.08
2023-04-22T04:36:46.551Z,15.60
2023-04-22T04:39:13.063Z,32.50
2023-04-22T04:41:41.228Z,19.10
2023-04-22T04:44:07.785Z,18.45
2023-04-22T04:46:34.659Z,20.65
2023-04-22T04:49:02.401Z,23.02
2023-04-22T04:51:29.009Z,18.73
2023-04-22T04:53:55.594Z,15.38
2023-04-22T04:56:22.111Z,19.17
2023-04-22T04:58:48.676Z,15.02
2023-04-22T05:01:15.261Z,31.42
2023-04-22T05:03:42.377Z,14.40
2023-04-22T05:06:09.119Z,16.67
2023-04-22T05:08:35.847Z,19.23
2023-04-22T05:11:02.396Z,15.55
2023-04-22T05:13:29.121Z,14.32
2023-04-22T05:15:55.846Z,12.75
2023-04-22T05:18:22.410Z,15.40
2023-04-22T05:20:49.102Z,20.30
2023-04-22T05:23:15.647Z,18.48
2023-04-22T05:25:42.398Z,21.05
2023-04-22T05:28:09.614Z,17.48
2023-04-22T05:30:36.264Z,14.98
2023-04-22T05:33:03.018Z,20.60
2023-04-22T05:35:29.681Z,15.23
2023-04-22T05:37:56.203Z,21.92
2023-04-22T05:40:22.846Z,14.82
2023-04-22T05:42:49.347Z,12.30
2023-04-22T05:45:16.128Z,17.63
2023-04-22T05:47:42.654Z,14.30
2023-04-22T05:50:09.409Z,16.40
2023-04-22T05:52:35.914Z,12.43
2023-04-22T05:55:02.441Z,11.85
2023-04-22T05:57:29.146Z,18.13
2023-04-22T05:59:55.616Z,17.65
2023-04-22T06:02:22.297Z,12.50
2023-04-22T06:04:49.405Z,15.45
2023-04-22T06:07:16.407Z,15.32
2023-04-22T06:09:43.217Z,17.05
2023-04-22T06:12:10.949Z,14.75
2023-04-22T06:14:37.470Z,13.23
2023-04-22T06:17:04.156Z,10.38
2023-04-22T06:19:30.707Z,15.45
2023-04-22T06:21:57.212Z,15.23
2023-04-22T06:24:23.746Z,13.93
2023-04-22T06:26:50.215Z,15.48
2023-04-22T06:29:19.490Z,16.65
2023-04-22T06:31:46.562Z,14.85
2023-04-22T06:34:13.115Z,12.55
2023-04-22T06:36:39.690Z,16.75
2023-04-22T06:39:06.527Z,16.80
2023-04-22T06:41:33.460Z,21.05
2023-04-22T06:44:00.021Z,12.48
2023-04-22T06:46:26.639Z,18.73
2023-04-22T06:48:53.127Z,19.88
2023-04-22T06:51:19.663Z,18.15
2023-04-22T06:53:46.424Z,21.33
2023-04-22T06:56:13.023Z,11.75
2023-04-22T06:58:39.623Z,17.38
2023-04-22T07:01:06.176Z,16.23
2023-04-22T07:03:32.862Z,16.25
2023-04-22T07:06:00.439Z,18.05
2023-04-22T07:08:27.023Z,22.48
2023-04-22T07:10:54.022Z,16.70
2023-04-22T07:13:20.665Z,16.38
2023-04-22T07:15:47.333Z,16.90
2023-04-22T07:18:13.818Z,26.52
2023-04-22T07:20:40.347Z,19.05
2023-04-22T07:23:06.836Z,20.10
2023-04-22T07:25:33.312Z,16.23
2023-04-22T07:27:59.936Z,18.40
2023-04-22T07:30:26.470Z,14.80
2023-04-22T07:32:53.247Z,13.55
2023-04-22T07:35:19.941Z,22.30
2023-04-22T07:37:46.513Z,23.17
2023-04-22T07:40:14.069Z,15.18
2023-04-22T07:42:40.840Z,22.75
2023-04-22T07:45:07.728Z,20.42
2023-04-22T07:47:34.461Z,14.65
2023-04-22T07:50:01.131Z,25.52
2023-04-22T07:52:27.663Z,22.42
2023-04-22T07:54:54.181Z,20.48
2023-04-22T07:57:22.867Z,15.93
2023-04-22T07:59:49.875Z,15.50
2023-04-22T08:02:16.480Z,17.77
2023-04-22T08:04:43.344Z,20.38
2023-04-22T08:07:26.826Z,18.88
2023-04-22T08:09:56.836Z,14.60
2023-04-22T08:12:24.121Z,22.77
2023-04-22T08:14:50.773Z,17.65
2023-04-22T08:17:17.420Z,17.95
2023-04-22T08:19:43.947Z,20.52
2023-04-22T08:22:10.436Z,22.70
2023-04-22T08:24:36.964Z,15.20
2023-04-22T08:27:03.542Z,14.55
2023-04-22T08:29:30.228Z,18.67
2023-04-22T08:31:56.767Z,20.05
2023-04-22T08:34:24.884Z,19.40
2023-04-22T08:36:51.575Z,19.83
2023-04-22T08:39:18.342Z,16.45
2023-04-22T08:41:45.873Z,15.82
2023-04-22T08:44:14.373Z,16.13
2023-04-22T08:46:46.590Z,19.30
2023-04-22T08:49:16.382Z,21.02
2023-04-22T08:51:44.138Z,17.25
2023-04-22T08:54:11.423Z,25.48
2023-04-22T08:56:43.390Z,24.05
2023-04-22T08:59:11.550Z,15.32
2023-04-22T09:01:42.192Z,20.88
2023-04-22T09:04:11.355Z,11.88
2023-04-22T09:06:39.176Z,15.77
2023-04-22T09:09:05.954Z,15.48
2023-04-22T09:11:33.466Z,16.70
2023-04-22T09:14:00.287Z,17.83
2023-04-22T09:16:29.870Z,16.15
2023-04-22T09:18:57.443Z,26.98
2023-04-22T09:21:32.085Z,17.08
2023-04-22T09:24:02.390Z,14.90
2023-04-22T09:26:28.919Z,15.63
2023-04-22T09:29:01.131Z,13.52
2023-04-22T09:31:28.693Z,14.52
2023-04-22T09:34:00.647Z,15.80
2023-04-22T09:36:28.965Z,12.15
2023-04-22T09:38:56.296Z,16.17
2023-04-22T09:41:39.570Z,14.13
2023-04-22T09:44:14.797Z,14.30
2023-04-22T09:46:45.019Z,20.55
2023-04-22T09:49:11.763Z,17.45
2023-04-22T09:51:42.032Z,20.08
2023-04-22T09:54:10.634Z,21.90
2023-04-22T09:56:48.668Z,16.15
2023-04-22T09:59:29.909Z,17.42
2023-04-22T10:02:09.488Z,14.20
2023-04-22T10:04:36.610Z,15.77
2023-04-22T10:07:03.207Z,22.10
2023-04-22T10:09:29.912Z,18.33
2023-04-22T10:12:01.081Z,17.38
2023-04-22T10:14:28.165Z,20.02
2023-04-22T10:16:59.954Z,25.90
2023-04-22T10:19:27.330Z,17.88
2023-04-22T10:21:57.330Z,24.77
2023-04-22T10:24:27.327Z,27.48
2023-04-22T10:27:02.817Z,29.88
2023-04-22T10:29:38.658Z,22.77
2023-04-22T10:32:08.498Z,27.38
2023-04-22T10:34:38.987Z,21.42
2023-04-22T10:37:09.480Z,16.48
2023-04-22T10:39:36.398Z,28.23
2023-04-22T10:42:02.860Z,29.73
2023-04-22T10:44:44.921Z,21.27
2023-04-22T10:47:11.594Z,29.42
2023-04-22T10:49:38.481Z,30.40
2023-04-22T10:52:07.836Z,27.35
2023-04-22T10:54:37.088Z,20.50
2023-04-22T10:57:11.854Z,26.52
2023-04-22T10:59:51.793Z,21.67
2023-04-22T11:02:19.499Z,24.13
2023-04-22T11:04:47.067Z,17.42
2023-04-22T11:07:23.087Z,21.27
2023-04-22T11:09:52.549Z,19.25
2023-04-22T11:12:51.624Z,15.52
2023-04-22T11:15:19.972Z,20.20
2023-04-22T11:17:48.259Z,23.65
2023-04-22T11:20:18.541Z,16.50
2023-04-22T11:22:51.862Z,16.42
2023-04-22T11:25:19.013Z,19.50
2023-04-22T11:27:45.970Z,21.38
2023-04-22T11:30:18.007Z,21.05
2023-04-22T11:32:56.013Z,19.33
2023-04-22T11:35:22.527Z,25.23
2023-04-22T11:37:58.920Z,26.10
2023-04-22T11:40:40.653Z,20.65
2023-04-22T11:43:10.082Z,23.75
2023-04-22T11:45:38.529Z,20.40
2023-04-22T11:48:07.685Z,26.10
2023-04-22T11:50:36.840Z,18.77
2023-04-22T11:53:15.505Z,20.23
2023-04-22T11:55:43.314Z,17.67
2023-04-22T11:58:09.766Z,14.80
2023-04-22T12:00:49.277Z,16.30
2023-04-22T12:03:19.340Z,18.65
2023-04-22T12:05:47.258Z,24.08
2023-04-22T12:08:16.861Z,19.27
2023-04-22T12:10:48.572Z,11.98
2023-04-22T12:13:30.234Z,12.00
2023-04-22T12:16:04.540Z,14.95
2023-04-22T12:21:04.595Z,20.40
2023-04-22T12:23:51.373Z,16.17
2023-04-22T12:26:20.795Z,16.67
2023-04-22T12:28:48.238Z,15.57
2023-04-22T12:31:15.412Z,21.20
2023-04-22T12:33:42.212Z,12.98
2023-04-22T12:36:09.817Z,18.27
2023-04-22T12:38:36.515Z,20.50
2023-04-22T12:41:04.675Z,23.08
2023-04-22T12:43:36.333Z,18.80
2023-04-22T12:46:04.068Z,22.60
2023-04-22T12:48:31.080Z,17.30
2023-04-22T12:50:58.568Z,18.08
2023-04-22T12:53:27.364Z,15.98
2023-04-22T12:55:54.292Z,17.27
2023-04-22T12:58:20.905Z,16.80
2023-04-22T13:00:47.632Z,19.90
2023-04-22T13:03:14.259Z,23.00
2023-04-22T13:05:41.080Z,18.40
2023-04-22T13:08:08.335Z,13.73
2023-04-22T13:10:36.101Z,25.90
2023-04-22T13:15:34.079Z,18.23
2023-04-22T13:18:00.691Z,18.67
2023-04-22T13:20:27.333Z,35.88
2023-04-22T13:22:53.893Z,22.92
2023-04-22T13:25:20.578Z,19.30
2023-04-22T13:27:47.111Z,19.27
2023-04-22T13:30:14.118Z,17.00
2023-04-22T13:32:41.248Z,15.88
2023-04-22T13:35:09.286Z,17.70
2023-04-22T13:37:36.896Z,17.25
2023-04-22T13:40:05.978Z,9.63
2023-04-22T13:42:32.644Z,9.65
2023-04-22T13:44:59.163Z,9.50
2023-04-22T13:47:25.764Z,7.65
2023-04-22T13:49:52.462Z,9.95
2023-04-22T13:52:18.935Z,8.18
2023-04-22T13:54:46.106Z,7.93
2023-04-22T13:57:13.197Z,4.95
2023-04-22T13:59:41.747Z,4.13
2023-04-22T14:02:08.998Z,11.52
2023-04-22T14:04:35.782Z,7.93
2023-04-22T14:07:02.655Z,7.72
2023-04-22T14:09:29.243Z,13.65
2023-04-22T14:11:55.838Z,11.23
2023-04-22T14:14:22.404Z,17.27
2023-04-22T14:16:49.188Z,20.42
2023-04-22T14:19:15.815Z,22.30
2023-04-22T14:21:42.320Z,27.95
2023-04-22T14:24:08.962Z,21.33
2023-04-22T14:26:35.459Z,28.50
2023-04-22T14:29:02.127Z,27.20
2023-04-22T14:31:28.629Z,24.80
2023-04-22T14:33:55.438Z,26.48
2023-04-22T14:36:21.953Z,23.52
2023-04-22T14:38:48.613Z,30.80
2023-04-22T14:41:15.478Z,29.05
2023-04-22T14:43:42.021Z,32.65
2023-04-22T14:46:08.624Z,27.80
2023-04-22T14:48:35.584Z,29.90
2023-04-22T14:51:02.448Z,23.05
2023-04-22T14:53:29.060Z,23.63
2023-04-22T14:55:56.530Z,25.55
2023-04-22T14:58:23.501Z,18.63
2023-04-22T15:00:50.577Z,20.02
2023-04-22T15:03:17.992Z,24.65
2023-04-22T15:05:45.514Z,24.02
2023-04-22T15:08:11.987Z,24.02
2023-04-22T15:10:38.560Z,19.02
2023-04-22T15:13:05.114Z,18.88
2023-04-22T15:15:31.877Z,18.25
2023-04-22T15:17:58.452Z,20.92
2023-04-22T15:20:25.092Z,23.10
2023-04-22T15:22:52.058Z,19.67
2023-04-22T15:25:19.029Z,16.67
2023-04-22T15:27:46.110Z,20.90
2023-04-22T15:30:12.929Z,21.80
2023-04-22T15:32:39.483Z,24.80
2023-04-22T15:35:07.949Z,23.38
2023-04-22T15:37:34.491Z,16.88
2023-04-22T15:40:01.017Z,18.50
2023-04-22T15:42:27.609Z,18.55
2023-04-22T15:44:54.094Z,14.65
2023-04-22T15:47:20.767Z,19.23
2023-04-22T15:49:47.447Z,16.60
2023-04-22T15:52:13.972Z,14.18
2023-04-22T15:54:40.594Z,15.32
2023-04-22T15:57:07.169Z,17.65
2023-04-22T15:59:33.689Z,24.27
2023-04-22T16:02:00.798Z,17.42
2023-04-22T16:04:27.840Z,20.08
2023-04-22T16:06:57.191Z,16.85
2023-04-22T16:09:24.197Z,27.13
2023-04-22T16:11:51.444Z,19.38
2023-04-22T16:14:18.198Z,21.42
2023-04-22T16:16:45.747Z,18.42
2023-04-22T16:19:12.628Z,19.88
2023-04-22T16:21:39.183Z,17.77
2023-04-22T16:24:06.114Z,16.00
2023-04-22T16:26:32.671Z,13.77
2023-04-22T16:28:59.250Z,13.75
2023-04-22T16:31:25.942Z,14.38
2023-04-22T16:33:52.874Z,11.05
2023-04-22T16:36:19.442Z,12.27
2023-04-22T16:38:46.004Z,7.97
2023-04-22T16:41:12.686Z,10.60
2023-04-22T16:43:41.073Z,7.97
2023-04-22T16:46:08.035Z,8.07
2023-04-22T16:48:36.067Z,6.65
2023-04-22T16:51:02.604Z,6.30
2023-04-22T16:53:29.212Z,3.20
2023-04-22T16:55:56.689Z,4.65
2023-04-22T16:58:23.553Z,5.55
2023-04-22T17:00:50.174Z,9.40
2023-04-22T17:03:16.870Z,7.03
2023-04-22T17:05:43.517Z,10.18
2023-04-22T17:08:10.160Z,7.30
2023-04-22T17:10:41.344Z,3.53
2023-04-22T17:13:07.938Z,9.85
2023-04-22T17:15:34.506Z,4.15
2023-04-22T17:18:02.488Z,7.80
2023-04-22T17:20:29.076Z,8.98
2023-04-22T17:22:55.819Z,6.05
2023-04-22T17:25:22.316Z,9.18
2023-04-22T17:27:48.781Z,6.63
2023-04-22T17:30:15.354Z,7.30
2023-04-22T17:32:41.965Z,12.10
2023-04-22T17:35:08.871Z,9.35
2023-04-22T17:37:35.489Z,9.95
2023-04-22T17:40:03.432Z,12.45
2023-04-22T17:42:44.669Z,7.43
2023-04-22T17:45:12.315Z,8.82
2023-04-22T17:47:38.891Z,12.68
2023-04-22T17:50:05.883Z,9.35
2023-04-22T17:52:32.444Z,10.18
2023-04-22T17:55:00.019Z,9.20
2023-04-22T17:57:28.363Z,10.13
2023-04-22T17:59:55.092Z,10.57
2023-04-22T18:02:22.358Z,9.13
2023-04-22T18:04:48.986Z,8.85
2023-04-22T18:07:15.681Z,7.78
2023-04-22T18:09:42.836Z,13.05
2023-04-22T18:12:09.912Z,11.48
2023-04-22T18:14:36.631Z,9.38
2023-04-22T18:17:03.495Z,5.43
2023-04-22T18:19:30.070Z,5.18
2023-04-22T18:21:59.996Z,5.95
2023-04-22T18:24:28.024Z,5.75
2023-04-22T18:26:54.574Z,6.28
2023-04-22T18:29:21.136Z,5.32
2023-04-22T18:31:47.817Z,8.00
2023-04-22T18:34:15.837Z,5.43
2023-04-22T18:36:42.600Z,3.80
2023-04-22T18:39:09.694Z,3.05
2023-04-22T18:41:38.595Z,3.25
2023-04-22T18:44:05.552Z,6.65
2023-04-22T18:46:32.210Z,3.70
2023-04-22T18:48:59.068Z,4.85
2023-04-22T18:51:25.738Z,3.35
2023-04-22T18:53:52.430Z,3.92
2023-04-22T18:56:18.972Z,4.65
2023-04-22T18:58:45.569Z,7.88
2023-04-22T19:01:12.150Z,6.80
2023-04-22T19:03:39.628Z,7.60
2023-04-22T19:06:06.924Z,7.07
2023-04-22T19:08:34.002Z,10.13
2023-04-22T19:11:01.860Z,19.67
2023-04-22T19:13:30.154Z,18.80
2023-04-22T19:15:57.866Z,16.70
2023-04-22T19:18:24.461Z,16.10
2023-04-22T19:20:51.081Z,14.65
2023-04-22T19:23:17.696Z,18.52
2023-04-22T19:25:44.329Z,11.77
2023-04-22T19:28:10.897Z,15.93
2023-04-22T19:30:37.444Z,10.52
2023-04-22T19:33:04.168Z,7.90
2023-04-22T19:35:31.004Z,9.27
2023-04-22T19:37:57.549Z,12.80
2023-04-22T19:40:24.099Z,14.35
2023-04-22T19:42:51.092Z,10.68
2023-04-22T19:45:17.846Z,11.70
2023-04-22T19:47:45.250Z,11.38
2023-04-22T19:50:12.375Z,11.48
2023-04-22T19:52:40.836Z,12.65
2023-04-22T19:55:09.279Z,11.82
2023-04-22T19:57:37.298Z,13.15
2023-04-22T20:00:07.311Z,14.38
2023-04-22T20:02:38.000Z,10.95
2023-04-22T20:05:05.835Z,10.25
2023-04-22T20:07:33.816Z,24.77
2023-04-22T20:10:02.261Z,9.68
2023-04-22T20:12:29.430Z,9.35
2023-04-22T20:14:57.939Z,8.38
2023-04-22T20:17:25.502Z,8.82
2023-04-22T20:19:52.842Z,9.45
2023-04-22T20:22:22.072Z,7.00
2023-04-22T20:25:02.063Z,7.47
2023-04-22T20:27:32.641Z,5.55
2023-04-22T20:30:00.141Z,6.55
2023-04-22T20:32:27.989Z,5.72
2023-04-22T20:34:55.911Z,7.43
2023-04-22T20:37:23.854Z,7.90
2023-04-22T20:39:51.474Z,8.63
2023-04-22T20:42:19.148Z,9.10
2023-04-22T20:44:46.391Z,8.93
2023-04-22T20:47:13.757Z,8.07
2023-04-22T20:49:41.168Z,11.32
2023-04-22T20:52:08.657Z,13.82
2023-04-22T20:54:36.181Z,18.05
2023-04-22T20:57:04.633Z,14.55
2023-04-22T20:59:31.358Z,17.35
2023-04-22T21:01:58.927Z,17.02
2023-04-22T21:04:26.988Z,18.63
2023-04-22T21:06:55.295Z,20.15
2023-04-22T21:09:24.806Z,24.58
2023-04-22T21:11:52.769Z,30.80
2023-04-22T21:14:22.174Z,24.67
2023-04-22T21:17:11.749Z,29.35
2023-04-22T21:19:40.985Z,28.15
2023-04-22T21:22:08.700Z,28.77
2023-04-22T21:24:35.621Z,31.33
2023-04-22T21:27:02.962Z,35.42
2023-04-22T21:29:30.005Z,31.45
2023-04-22T21:32:08.171Z,37.35
2023-04-22T21:34:35.788Z,28.90
2023-04-22T21:37:02.593Z,35.53
2023-04-22T21:39:29.896Z,29.33
2023-04-22T21:41:56.713Z,30.58
2023-04-22T21:44:23.241Z,32.17
2023-04-22T21:46:49.815Z,33.13
2023-04-22T21:49:16.333Z,34.35
2023-04-22T21:51:43.005Z,36.15
2023-04-22T21:54:09.774Z,35.55
2023-04-22T21:56:36.395Z,35.17
2023-04-22T21:59:02.953Z,35.00
2023-04-22T22:01:29.459Z,33.35
2023-04-22T22:03:56.137Z,34.40
2023-04-22T22:06:22.915Z,33.17
2023-04-22T22:08:49.426Z,32.03
2023-04-22T22:11:27.612Z,30.50
2023-04-22T22:13:57.165Z,29.27
2023-04-22T22:16:24.725Z,27.10
2023-04-22T22:18:51.920Z,24.90
2023-04-22T22:21:18.739Z,30.95
2023-04-22T22:23:45.319Z,29.52
2023-04-22T22:26:12.805Z,23.05
2023-04-22T22:28:39.822Z,23.00
2023-04-22T22:31:06.918Z,27.40
2023-04-22T22:33:33.559Z,27.83
2023-04-22T22:36:00.054Z,27.40
2023-04-22T22:38:26.549Z,27.40
2023-04-22T22:40:53.089Z,30.25
2023-04-22T22:43:19.618Z,32.28
2023-04-22T22:45:46.453Z,28.75
2023-04-22T22:48:13.374Z,32.55
2023-04-22T22:50:40.708Z,31.48
2023-04-22T22:53:07.233Z,39.25
2023-04-22T22:55:34.194Z,29.98
2023-04-22T22:58:00.950Z,30.55
2023-04-22T23:00:27.680Z,28.55
2023-04-22T23:02:54.563Z,27.48
2023-04-22T23:05:21.437Z,26.08
2023-04-22T23:07:47.924Z,31.55
2023-04-22T23:10:15.023Z,33.78
2023-04-22T23:12:41.539Z,27.75
2023-04-22T23:15:08.945Z,33.05
2023-04-22T23:17:36.632Z,29.73
2023-04-22T23:20:04.446Z,24.77
2023-04-22T23:22:32.219Z,28.45
2023-04-22T23:24:59.170Z,35.00
2023-04-22T23:27:26.043Z,33.63
2023-04-22T23:29:52.858Z,28.85
2023-04-22T23:32:19.767Z,26.80
2023-04-22T23:34:49.599Z,28.10
2023-04-22T23:37:18.933Z,22.27
2023-04-22T23:39:45.603Z,22.88
2023-04-22T23:42:12.294Z,24.52
2023-04-22T23:44:39.130Z,18.85
2023-04-22T23:47:06.370Z,17.23
2023-04-22T23:49:32.935Z,16.23
2023-04-22T23:51:59.636Z,14.70
2023-04-22T23:54:26.999Z,13.85
2023-04-22T23:56:53.928Z,15.13
2023-04-22T23:59:20.711Z,15.63
